sensor_id;sensor_type;location;lat;lon;timestamp;P1;durP1;ratioP1;P2;durP2;ratioP2
12832;SDS011;6483;51.310;4.462;2022-11-20T00:01:08;17.57;;;11.80;;
12832;SDS011;6483;51.310;4.462;2022-11-20T00:03:42;16.07;;;11.13;;
12832;SDS011;6483;51.310;4.462;2022-11-20T00:06:10;16.07;;;11.27;;
12832;SDS011;6483;51.310;4.462;2022-11-20T00:08:37;15.30;;;11.07;;
12832;SDS011;6483;51.310;4.462;2022-11-20T00:11:06;17.43;;;12.77;;
12832;SDS011;6483;51.310;4.462;2022-11-20T00:13:34;17.80;;;12.43;;
12832;SDS011;6483;51.310;4.462;2022-11-20T00:16:02;18.70;;;11.90;;
12832;SDS011;6483;51.310;4.462;2022-11-20T00:18:29;19.57;;;11.67;;
12832;SDS011;6483;51.310;4.462;2022-11-20T00:21:02;15.83;;;11.73;;
12832;SDS011;6483;51.310;4.462;2022-11-20T00:23:32;16.70;;;12.07;;
12832;SDS011;6483;51.310;4.462;2022-11-20T00:26:05;16.87;;;11.57;;
12832;SDS011;6483;51.310;4.462;2022-11-20T00:28:32;16.37;;;11.77;;
12832;SDS011;6483;51.310;4.462;2022-11-20T00:31:02;16.63;;;10.70;;
12832;SDS011;6483;51.310;4.462;2022-11-20T00:33:29;15.80;;;10.80;;
12832;SDS011;6483;51.310;4.462;2022-11-20T00:35:58;17.13;;;10.67;;
12832;SDS011;6483;51.310;4.462;2022-11-20T00:38:26;14.47;;;10.53;;
12832;SDS011;6483;51.310;4.462;2022-11-20T00:40:58;13.13;;;10.20;;
12832;SDS011;6483;51.310;4.462;2022-11-20T00:43:25;15.30;;;10.83;;
12832;SDS011;6483;51.310;4.462;2022-11-20T00:45:56;16.43;;;10.73;;
12832;SDS011;6483;51.310;4.462;2022-11-20T00:48:26;15.33;;;11.13;;
12832;SDS011;6483;51.310;4.462;2022-11-20T00:50:52;16.07;;;11.20;;
12832;SDS011;6483;51.310;4.462;2022-11-20T00:53:18;15.87;;;11.00;;
12832;SDS011;6483;51.310;4.462;2022-11-20T00:56:00;16.37;;;11.87;;
12832;SDS011;6483;51.310;4.462;2022-11-20T00:58:29;14.87;;;11.47;;
12832;SDS011;6483;51.310;4.462;2022-11-20T01:03:31;13.90;;;10.43;;
12832;SDS011;6483;51.310;4.462;2022-11-20T01:06:10;15.23;;;10.80;;
12832;SDS011;6483;51.310;4.462;2022-11-20T01:09:00;16.43;;;10.50;;
12832;SDS011;6483;51.310;4.462;2022-11-20T01:11:35;14.87;;;10.97;;
12832;SDS011;6483;51.310;4.462;2022-11-20T01:14:05;15.10;;;10.03;;
12832;SDS011;6483;51.310;4.462;2022-11-20T01:16:33;14.40;;;10.57;;
12832;SDS011;6483;51.310;4.462;2022-11-20T01:19:02;16.17;;;10.90;;
12832;SDS011;6483;51.310;4.462;2022-11-20T01:21:34;16.07;;;11.13;;
12832;SDS011;6483;51.310;4.462;2022-11-20T01:24:02;21.33;;;10.97;;
12832;SDS011;6483;51.310;4.462;2022-11-20T01:26:30;16.80;;;10.43;;
12832;SDS011;6483;51.310;4.462;2022-11-20T01:29:00;16.23;;;11.10;;
12832;SDS011;6483;51.310;4.462;2022-11-20T01:31:35;16.13;;;11.00;;
12832;SDS011;6483;51.310;4.462;2022-11-20T01:34:06;17.50;;;11.07;;
12832;SDS011;6483;51.310;4.462;2022-11-20T01:36:40;15.33;;;10.60;;
12832;SDS011;6483;51.310;4.462;2022-11-20T01:39:10;14.20;;;10.83;;
12832;SDS011;6483;51.310;4.462;2022-11-20T01:41:39;15.93;;;11.87;;
12832;SDS011;6483;51.310;4.462;2022-11-20T01:44:45;14.30;;;10.30;;
12832;SDS011;6483;51.310;4.462;2022-11-20T01:47:20;14.27;;;10.60;;
12832;SDS011;6483;51.310;4.462;2022-11-20T01:50:06;14.67;;;10.40;;
12832;SDS011;6483;51.310;4.462;2022-11-20T01:52:41;18.17;;;11.30;;
12832;SDS011;6483;51.310;4.462;2022-11-20T01:55:12;13.50;;;10.30;;
12832;SDS011;6483;51.310;4.462;2022-11-20T01:57:44;13.47;;;10.43;;
12832;SDS011;6483;51.310;4.462;2022-11-20T02:00:14;16.37;;;11.40;;
12832;SDS011;6483;51.310;4.462;2022-11-20T02:02:47;15.47;;;10.97;;
12832;SDS011;6483;51.310;4.462;2022-11-20T02:08:05;15.13;;;11.50;;
12832;SDS011;6483;51.310;4.462;2022-11-20T02:10:33;15.10;;;10.80;;
12832;SDS011;6483;51.310;4.462;2022-11-20T02:12:58;15.07;;;10.70;;
12832;SDS011;6483;51.310;4.462;2022-11-20T02:15:43;15.57;;;11.03;;
12832;SDS011;6483;51.310;4.462;2022-11-20T02:18:10;14.93;;;10.90;;
12832;SDS011;6483;51.310;4.462;2022-11-20T02:20:38;14.37;;;10.60;;
12832;SDS011;6483;51.310;4.462;2022-11-20T02:23:10;15.60;;;10.83;;
12832;SDS011;6483;51.310;4.462;2022-11-20T02:26:12;15.03;;;10.90;;
12832;SDS011;6483;51.310;4.462;2022-11-20T02:28:39;15.30;;;11.40;;
12832;SDS011;6483;51.310;4.462;2022-11-20T02:31:05;19.00;;;11.40;;
12832;SDS011;6483;51.310;4.462;2022-11-20T02:33:30;17.87;;;11.00;;
12832;SDS011;6483;51.310;4.462;2022-11-20T02:35:56;15.50;;;11.30;;
12832;SDS011;6483;51.310;4.462;2022-11-20T02:38:22;18.17;;;11.73;;
12832;SDS011;6483;51.310;4.462;2022-11-20T02:40:48;15.07;;;10.77;;
12832;SDS011;6483;51.310;4.462;2022-11-20T02:43:15;16.37;;;11.97;;
12832;SDS011;6483;51.310;4.462;2022-11-20T02:45:41;16.33;;;11.10;;
12832;SDS011;6483;51.310;4.462;2022-11-20T02:48:07;22.03;;;12.87;;
12832;SDS011;6483;51.310;4.462;2022-11-20T02:50:33;16.37;;;11.40;;
12832;SDS011;6483;51.310;4.462;2022-11-20T02:53:01;18.17;;;11.60;;
12832;SDS011;6483;51.310;4.462;2022-11-20T02:55:26;15.93;;;11.67;;
12832;SDS011;6483;51.310;4.462;2022-11-20T02:57:52;15.63;;;10.97;;
12832;SDS011;6483;51.310;4.462;2022-11-20T03:00:19;17.87;;;11.87;;
12832;SDS011;6483;51.310;4.462;2022-11-20T03:02:49;15.97;;;11.90;;
12832;SDS011;6483;51.310;4.462;2022-11-20T03:05:15;15.97;;;11.00;;
12832;SDS011;6483;51.310;4.462;2022-11-20T03:07:40;14.30;;;10.53;;
12832;SDS011;6483;51.310;4.462;2022-11-20T03:10:08;18.40;;;12.00;;
12832;SDS011;6483;51.310;4.462;2022-11-20T03:12:35;15.63;;;10.93;;
12832;SDS011;6483;51.310;4.462;2022-11-20T03:15:04;17.23;;;10.90;;
12832;SDS011;6483;51.310;4.462;2022-11-20T03:17:33;15.80;;;10.73;;
12832;SDS011;6483;51.310;4.462;2022-11-20T03:19:59;17.87;;;11.70;;
12832;SDS011;6483;51.310;4.462;2022-11-20T03:22:31;19.10;;;11.83;;
12832;SDS011;6483;51.310;4.462;2022-11-20T03:24:57;18.30;;;11.93;;
12832;SDS011;6483;51.310;4.462;2022-11-20T03:27:22;17.90;;;12.00;;
12832;SDS011;6483;51.310;4.462;2022-11-20T03:29:48;17.23;;;12.10;;
12832;SDS011;6483;51.310;4.462;2022-11-20T03:32:14;17.27;;;11.80;;
12832;SDS011;6483;51.310;4.462;2022-11-20T03:34:39;21.10;;;13.07;;
12832;SDS011;6483;51.310;4.462;2022-11-20T03:37:05;19.90;;;13.37;;
12832;SDS011;6483;51.310;4.462;2022-11-20T03:39:31;19.80;;;12.63;;
12832;SDS011;6483;51.310;4.462;2022-11-20T03:41:56;21.37;;;13.73;;
12832;SDS011;6483;51.310;4.462;2022-11-20T03:44:25;20.10;;;13.00;;
12832;SDS011;6483;51.310;4.462;2022-11-20T03:46:53;18.57;;;13.67;;
12832;SDS011;6483;51.310;4.462;2022-11-20T03:49:22;19.40;;;13.27;;
12832;SDS011;6483;51.310;4.462;2022-11-20T03:51:51;18.13;;;12.60;;
12832;SDS011;6483;51.310;4.462;2022-11-20T03:54:16;21.33;;;14.57;;
12832;SDS011;6483;51.310;4.462;2022-11-20T03:56:42;22.43;;;14.30;;
12832;SDS011;6483;51.310;4.462;2022-11-20T03:59:09;22.83;;;13.90;;
12832;SDS011;6483;51.310;4.462;2022-11-20T04:01:38;19.67;;;13.53;;
12832;SDS011;6483;51.310;4.462;2022-11-20T04:04:04;19.20;;;13.03;;
12832;SDS011;6483;51.310;4.462;2022-11-20T04:06:33;19.87;;;13.87;;
12832;SDS011;6483;51.310;4.462;2022-11-20T04:09:01;19.57;;;13.77;;
12832;SDS011;6483;51.310;4.462;2022-11-20T04:11:28;21.27;;;13.50;;
12832;SDS011;6483;51.310;4.462;2022-11-20T04:13:59;19.50;;;14.30;;
12832;SDS011;6483;51.310;4.462;2022-11-20T04:16:50;19.80;;;14.00;;
12832;SDS011;6483;51.310;4.462;2022-11-20T04:19:16;19.17;;;12.87;;
12832;SDS011;6483;51.310;4.462;2022-11-20T04:21:42;20.80;;;13.80;;
12832;SDS011;6483;51.310;4.462;2022-11-20T04:24:09;20.60;;;14.53;;
12832;SDS011;6483;51.310;4.462;2022-11-20T04:26:35;20.43;;;13.70;;
12832;SDS011;6483;51.310;4.462;2022-11-20T04:29:01;20.83;;;14.17;;
12832;SDS011;6483;51.310;4.462;2022-11-20T04:31:31;19.73;;;13.73;;
12832;SDS011;6483;51.310;4.462;2022-11-20T04:33:59;21.37;;;13.80;;
12832;SDS011;6483;51.310;4.462;2022-11-20T04:36:28;24.47;;;15.33;;
12832;SDS011;6483;51.310;4.462;2022-11-20T04:38:58;25.60;;;16.77;;
12832;SDS011;6483;51.310;4.462;2022-11-20T04:41:32;26.43;;;15.77;;
12832;SDS011;6483;51.310;4.462;2022-11-20T04:44:04;22.73;;;15.43;;
12832;SDS011;6483;51.310;4.462;2022-11-20T04:46:38;25.60;;;16.50;;
12832;SDS011;6483;51.310;4.462;2022-11-20T04:49:48;24.47;;;15.47;;
12832;SDS011;6483;51.310;4.462;2022-11-20T04:51:56;22.53;;;14.03;;
12832;SDS011;6483;51.310;4.462;2022-11-20T04:54:22;24.50;;;15.33;;
12832;SDS011;6483;51.310;4.462;2022-11-20T04:56:48;24.90;;;15.40;;
12832;SDS011;6483;51.310;4.462;2022-11-20T04:59:14;25.40;;;15.70;;
12832;SDS011;6483;51.310;4.462;2022-11-20T05:01:44;22.07;;;14.97;;
12832;SDS011;6483;51.310;4.462;2022-11-20T05:04:11;26.83;;;16.17;;
12832;SDS011;6483;51.310;4.462;2022-11-20T05:06:37;21.60;;;14.77;;
12832;SDS011;6483;51.310;4.462;2022-11-20T05:09:03;23.77;;;15.63;;
12832;SDS011;6483;51.310;4.462;2022-11-20T05:11:32;25.63;;;15.47;;
12832;SDS011;6483;51.310;4.462;2022-11-20T05:13:58;25.33;;;16.77;;
12832;SDS011;6483;51.310;4.462;2022-11-20T05:16:25;29.40;;;18.10;;
12832;SDS011;6483;51.310;4.462;2022-11-20T05:18:53;26.87;;;17.47;;
12832;SDS011;6483;51.310;4.462;2022-11-20T05:21:20;28.03;;;18.47;;
12832;SDS011;6483;51.310;4.462;2022-11-20T05:23:47;29.13;;;17.70;;
12832;SDS011;6483;51.310;4.462;2022-11-20T05:26:14;24.27;;;16.27;;
12832;SDS011;6483;51.310;4.462;2022-11-20T05:28:41;27.00;;;16.67;;
12832;SDS011;6483;51.310;4.462;2022-11-20T05:31:11;29.43;;;17.23;;
12832;SDS011;6483;51.310;4.462;2022-11-20T05:33:39;27.87;;;18.13;;
12832;SDS011;6483;51.310;4.462;2022-11-20T05:36:11;28.13;;;18.00;;
12832;SDS011;6483;51.310;4.462;2022-11-20T05:38:38;29.30;;;18.90;;
12832;SDS011;6483;51.310;4.462;2022-11-20T05:43:33;35.17;;;19.83;;
12832;SDS011;6483;51.310;4.462;2022-11-20T05:45:59;38.67;;;22.43;;
12832;SDS011;6483;51.310;4.462;2022-11-20T05:48:26;30.10;;;19.07;;
12832;SDS011;6483;51.310;4.462;2022-11-20T05:50:52;30.73;;;18.60;;
12832;SDS011;6483;51.310;4.462;2022-11-20T05:53:17;31.40;;;18.63;;
12832;SDS011;6483;51.310;4.462;2022-11-20T05:55:45;32.87;;;20.63;;
12832;SDS011;6483;51.310;4.462;2022-11-20T05:58:11;39.33;;;21.00;;
12832;SDS011;6483;51.310;4.462;2022-11-20T06:00:37;39.17;;;22.40;;
12832;SDS011;6483;51.310;4.462;2022-11-20T06:03:05;38.47;;;22.83;;
12832;SDS011;6483;51.310;4.462;2022-11-20T06:05:33;41.30;;;22.10;;
12832;SDS011;6483;51.310;4.462;2022-11-20T06:08:00;42.30;;;22.73;;
12832;SDS011;6483;51.310;4.462;2022-11-20T06:10:28;49.57;;;26.10;;
12832;SDS011;6483;51.310;4.462;2022-11-20T06:12:57;43.47;;;25.27;;
12832;SDS011;6483;51.310;4.462;2022-11-20T06:15:23;43.93;;;24.77;;
12832;SDS011;6483;51.310;4.462;2022-11-20T06:17:53;41.93;;;23.77;;
12832;SDS011;6483;51.310;4.462;2022-11-20T06:20:20;45.17;;;26.00;;
12832;SDS011;6483;51.310;4.462;2022-11-20T06:22:46;44.00;;;25.17;;
12832;SDS011;6483;51.310;4.462;2022-11-20T06:25:12;40.40;;;23.33;;
12832;SDS011;6483;51.310;4.462;2022-11-20T06:27:38;42.30;;;25.93;;
12832;SDS011;6483;51.310;4.462;2022-11-20T06:30:07;44.63;;;25.73;;
12832;SDS011;6483;51.310;4.462;2022-11-20T06:32:36;47.43;;;24.97;;
12832;SDS011;6483;51.310;4.462;2022-11-20T06:35:05;47.73;;;26.60;;
12832;SDS011;6483;51.310;4.462;2022-11-20T06:37:31;46.10;;;26.60;;
12832;SDS011;6483;51.310;4.462;2022-11-20T06:39:59;46.40;;;24.93;;
12832;SDS011;6483;51.310;4.462;2022-11-20T06:42:26;45.80;;;25.70;;
12832;SDS011;6483;51.310;4.462;2022-11-20T06:44:52;42.90;;;24.97;;
12832;SDS011;6483;51.310;4.462;2022-11-20T06:47:17;43.03;;;25.07;;
12832;SDS011;6483;51.310;4.462;2022-11-20T06:49:53;48.33;;;27.10;;
12832;SDS011;6483;51.310;4.462;2022-11-20T06:52:22;45.80;;;26.13;;
12832;SDS011;6483;51.310;4.462;2022-11-20T06:54:47;49.57;;;27.63;;
12832;SDS011;6483;51.310;4.462;2022-11-20T06:57:13;45.17;;;27.03;;
12832;SDS011;6483;51.310;4.462;2022-11-20T06:59:38;44.93;;;27.17;;
12832;SDS011;6483;51.310;4.462;2022-11-20T07:02:04;49.03;;;27.17;;
12832;SDS011;6483;51.310;4.462;2022-11-20T07:04:31;51.27;;;26.97;;
12832;SDS011;6483;51.310;4.462;2022-11-20T07:06:56;48.80;;;27.60;;
12832;SDS011;6483;51.310;4.462;2022-11-20T07:09:22;49.27;;;27.23;;
12832;SDS011;6483;51.310;4.462;2022-11-20T07:11:51;48.40;;;26.63;;
12832;SDS011;6483;51.310;4.462;2022-11-20T07:14:19;44.70;;;26.43;;
12832;SDS011;6483;51.310;4.462;2022-11-20T07:16:48;46.47;;;27.87;;
12832;SDS011;6483;51.310;4.462;2022-11-20T07:19:14;49.77;;;27.90;;
12832;SDS011;6483;51.310;4.462;2022-11-20T07:21:40;50.40;;;28.10;;
12832;SDS011;6483;51.310;4.462;2022-11-20T07:24:06;51.00;;;28.47;;
12832;SDS011;6483;51.310;4.462;2022-11-20T07:26:32;48.43;;;27.77;;
12832;SDS011;6483;51.310;4.462;2022-11-20T07:29:00;52.57;;;30.40;;
12832;SDS011;6483;51.310;4.462;2022-11-20T07:31:28;49.93;;;27.33;;
12832;SDS011;6483;51.310;4.462;2022-11-20T07:33:57;57.53;;;30.37;;
12832;SDS011;6483;51.310;4.462;2022-11-20T07:36:23;52.13;;;29.37;;
12832;SDS011;6483;51.310;4.462;2022-11-20T07:38:48;50.47;;;29.23;;
12832;SDS011;6483;51.310;4.462;2022-11-20T07:41:17;51.33;;;28.67;;
12832;SDS011;6483;51.310;4.462;2022-11-20T07:43:42;54.47;;;30.33;;
12832;SDS011;6483;51.310;4.462;2022-11-20T07:46:08;56.80;;;30.17;;
12832;SDS011;6483;51.310;4.462;2022-11-20T07:48:34;52.20;;;30.37;;
12832;SDS011;6483;51.310;4.462;2022-11-20T07:51:00;51.30;;;30.00;;
12832;SDS011;6483;51.310;4.462;2022-11-20T07:53:26;55.37;;;30.77;;
12832;SDS011;6483;51.310;4.462;2022-11-20T07:55:52;57.30;;;31.87;;
12832;SDS011;6483;51.310;4.462;2022-11-20T07:58:21;55.87;;;29.67;;
12832;SDS011;6483;51.310;4.462;2022-11-20T08:00:46;52.13;;;29.13;;
12832;SDS011;6483;51.310;4.462;2022-11-20T08:03:18;49.63;;;28.37;;
12832;SDS011;6483;51.310;4.462;2022-11-20T08:05:44;47.80;;;28.07;;
12832;SDS011;6483;51.310;4.462;2022-11-20T08:08:10;47.17;;;27.53;;
12832;SDS011;6483;51.310;4.462;2022-11-20T08:10:36;52.40;;;29.17;;
12832;SDS011;6483;51.310;4.462;2022-11-20T08:13:01;53.23;;;31.03;;
12832;SDS011;6483;51.310;4.462;2022-11-20T08:15:49;45.37;;;27.20;;
12832;SDS011;6483;51.310;4.462;2022-11-20T08:18:16;49.03;;;28.93;;
12832;SDS011;6483;51.310;4.462;2022-11-20T08:20:45;53.67;;;28.67;;
12832;SDS011;6483;51.310;4.462;2022-11-20T08:23:15;51.20;;;28.00;;
12832;SDS011;6483;51.310;4.462;2022-11-20T08:25:43;45.03;;;26.07;;
12832;SDS011;6483;51.310;4.462;2022-11-20T08:28:13;50.97;;;28.37;;
12832;SDS011;6483;51.310;4.462;2022-11-20T08:30:42;50.57;;;28.93;;
12832;SDS011;6483;51.310;4.462;2022-11-20T08:33:08;51.27;;;28.23;;
12832;SDS011;6483;51.310;4.462;2022-11-20T08:35:34;47.40;;;26.70;;
12832;SDS011;6483;51.310;4.462;2022-11-20T08:38:02;51.63;;;27.03;;
12832;SDS011;6483;51.310;4.462;2022-11-20T08:40:31;48.77;;;27.57;;
12832;SDS011;6483;51.310;4.462;2022-11-20T08:43:01;51.47;;;27.97;;
12832;SDS011;6483;51.310;4.462;2022-11-20T08:45:27;48.70;;;27.70;;
12832;SDS011;6483;51.310;4.462;2022-11-20T08:47:53;48.10;;;26.37;;
12832;SDS011;6483;51.310;4.462;2022-11-20T08:50:25;50.23;;;28.73;;
12832;SDS011;6483;51.310;4.462;2022-11-20T08:52:51;51.23;;;28.40;;
12832;SDS011;6483;51.310;4.462;2022-11-20T08:55:18;48.37;;;27.47;;
12832;SDS011;6483;51.310;4.462;2022-11-20T08:57:44;50.30;;;27.63;;
12832;SDS011;6483;51.310;4.462;2022-11-20T09:00:18;49.83;;;25.93;;
12832;SDS011;6483;51.310;4.462;2022-11-20T09:02:44;47.50;;;28.30;;
12832;SDS011;6483;51.310;4.462;2022-11-20T09:05:09;43.50;;;26.10;;
12832;SDS011;6483;51.310;4.462;2022-11-20T09:07:35;49.03;;;28.50;;
12832;SDS011;6483;51.310;4.462;2022-11-20T09:10:04;44.83;;;27.33;;
12832;SDS011;6483;51.310;4.462;2022-11-20T09:12:36;45.03;;;26.80;;
12832;SDS011;6483;51.310;4.462;2022-11-20T09:15:01;47.20;;;27.57;;
12832;SDS011;6483;51.310;4.462;2022-11-20T09:17:30;47.60;;;26.97;;
12832;SDS011;6483;51.310;4.462;2022-11-20T09:19:55;42.53;;;26.17;;
12832;SDS011;6483;51.310;4.462;2022-11-20T09:22:21;53.47;;;30.97;;
12832;SDS011;6483;51.310;4.462;2022-11-20T09:24:47;47.00;;;29.93;;
12832;SDS011;6483;51.310;4.462;2022-11-20T09:27:15;51.17;;;29.33;;
12832;SDS011;6483;51.310;4.462;2022-11-20T09:29:46;57.10;;;31.60;;
12832;SDS011;6483;51.310;4.462;2022-11-20T09:32:14;78.77;;;42.47;;
12832;SDS011;6483;51.310;4.462;2022-11-20T09:34:40;60.07;;;34.87;;
12832;SDS011;6483;51.310;4.462;2022-11-20T09:37:08;60.73;;;33.07;;
12832;SDS011;6483;51.310;4.462;2022-11-20T09:39:37;81.00;;;41.70;;
12832;SDS011;6483;51.310;4.462;2022-11-20T09:42:08;60.73;;;33.30;;
12832;SDS011;6483;51.310;4.462;2022-11-20T09:47:51;52.17;;;27.63;;
12832;SDS011;6483;51.310;4.462;2022-11-20T09:50:35;47.70;;;26.63;;
12832;SDS011;6483;51.310;4.462;2022-11-20T09:55:42;49.13;;;28.23;;
12832;SDS011;6483;51.310;4.462;2022-11-20T10:01:26;56.60;;;32.60;;
12832;SDS011;6483;51.310;4.462;2022-11-20T10:14:31;48.43;;;26.83;;
12832;SDS011;6483;51.310;4.462;2022-11-20T10:20:24;56.30;;;29.20;;
12832;SDS011;6483;51.310;4.462;2022-11-20T10:26:05;56.27;;;27.87;;
12832;SDS011;6483;51.310;4.462;2022-11-20T10:29:07;57.70;;;28.60;;
12832;SDS011;6483;51.310;4.462;2022-11-20T10:31:52;58.67;;;27.97;;
12832;SDS011;6483;51.310;4.462;2022-11-20T10:34:27;61.87;;;29.87;;
12832;SDS011;6483;51.310;4.462;2022-11-20T10:37:00;63.87;;;37.07;;
12832;SDS011;6483;51.310;4.462;2022-11-20T10:43:24;57.37;;;27.57;;
12832;SDS011;6483;51.310;4.462;2022-11-20T10:46:03;60.37;;;27.77;;
12832;SDS011;6483;51.310;4.462;2022-11-20T10:48:36;59.20;;;28.03;;
12832;SDS011;6483;51.310;4.462;2022-11-20T10:56:52;59.43;;;26.97;;
12832;SDS011;6483;51.310;4.462;2022-11-20T11:05:10;54.57;;;27.93;;
12832;SDS011;6483;51.310;4.462;2022-11-20T11:07:38;64.50;;;29.50;;
12832;SDS011;6483;51.310;4.462;2022-11-20T11:10:18;60.37;;;28.17;;
12832;SDS011;6483;51.310;4.462;2022-11-20T11:15:48;64.50;;;28.10;;
12832;SDS011;6483;51.310;4.462;2022-11-20T11:18:22;59.20;;;27.33;;
12832;SDS011;6483;51.310;4.462;2022-11-20T11:21:00;60.63;;;28.97;;
12832;SDS011;6483;51.310;4.462;2022-11-20T11:23:29;61.23;;;27.67;;
12832;SDS011;6483;51.310;4.462;2022-11-20T11:26:04;62.87;;;27.97;;
12832;SDS011;6483;51.310;4.462;2022-11-20T11:29:00;59.73;;;27.07;;
12832;SDS011;6483;51.310;4.462;2022-11-20T11:31:31;62.63;;;29.30;;
12832;SDS011;6483;51.310;4.462;2022-11-20T11:34:11;61.67;;;29.23;;
12832;SDS011;6483;51.310;4.462;2022-11-20T11:36:49;65.27;;;29.23;;
12832;SDS011;6483;51.310;4.462;2022-11-20T11:39:21;55.37;;;25.37;;
12832;SDS011;6483;51.310;4.462;2022-11-20T11:41:47;57.80;;;25.77;;
12832;SDS011;6483;51.310;4.462;2022-11-20T11:44:20;53.77;;;24.43;;
12832;SDS011;6483;51.310;4.462;2022-11-20T12:06:58;55.47;;;24.47;;
12832;SDS011;6483;51.310;4.462;2022-11-20T12:09:37;52.57;;;25.53;;
12832;SDS011;6483;51.310;4.462;2022-11-20T12:12:12;55.60;;;24.80;;
12832;SDS011;6483;51.310;4.462;2022-11-20T12:14:51;48.43;;;24.27;;
12832;SDS011;6483;51.310;4.462;2022-11-20T12:17:20;45.03;;;23.20;;
12832;SDS011;6483;51.310;4.462;2022-11-20T12:19:45;46.47;;;22.57;;
12832;SDS011;6483;51.310;4.462;2022-11-20T12:30:25;47.20;;;22.37;;
12832;SDS011;6483;51.310;4.462;2022-11-20T12:35:44;47.30;;;25.83;;
12832;SDS011;6483;51.310;4.462;2022-11-20T12:57:05;51.37;;;22.80;;
12832;SDS011;6483;51.310;4.462;2022-11-20T13:07:50;82.50;;;37.83;;
12832;SDS011;6483;51.310;4.462;2022-11-20T13:10:42;81.07;;;36.47;;
12832;SDS011;6483;51.310;4.462;2022-11-20T13:13:15;60.53;;;29.53;;
12832;SDS011;6483;51.310;4.462;2022-11-20T13:16:18;90.87;;;38.37;;
12832;SDS011;6483;51.310;4.462;2022-11-20T13:18:49;66.70;;;29.47;;
12832;SDS011;6483;51.310;4.462;2022-11-20T13:21:23;82.90;;;31.07;;
12832;SDS011;6483;51.310;4.462;2022-11-20T13:29:31;53.73;;;29.53;;
12832;SDS011;6483;51.310;4.462;2022-11-20T13:32:13;52.03;;;28.50;;
12832;SDS011;6483;51.310;4.462;2022-11-20T13:38:14;51.87;;;23.87;;
12832;SDS011;6483;51.310;4.462;2022-11-20T13:43:26;32.50;;;14.63;;
12832;SDS011;6483;51.310;4.462;2022-11-20T13:46:00;40.57;;;18.83;;
12832;SDS011;6483;51.310;4.462;2022-11-20T13:48:30;46.90;;;19.17;;
12832;SDS011;6483;51.310;4.462;2022-11-20T13:51:09;25.20;;;12.87;;
12832;SDS011;6483;51.310;4.462;2022-11-20T13:54:20;24.60;;;10.93;;
12832;SDS011;6483;51.310;4.462;2022-11-20T13:59:58;22.67;;;11.03;;
12832;SDS011;6483;51.310;4.462;2022-11-20T14:02:47;19.07;;;8.80;;
12832;SDS011;6483;51.310;4.462;2022-11-20T14:05:45;15.53;;;8.00;;
12832;SDS011;6483;51.310;4.462;2022-11-20T14:08:23;12.10;;;5.90;;
12832;SDS011;6483;51.310;4.462;2022-11-20T14:11:14;12.30;;;6.10;;
12832;SDS011;6483;51.310;4.462;2022-11-20T14:16:33;17.17;;;6.83;;
12832;SDS011;6483;51.310;4.462;2022-11-20T14:21:45;16.77;;;6.87;;
12832;SDS011;6483;51.310;4.462;2022-11-20T14:24:34;14.03;;;6.07;;
12832;SDS011;6483;51.310;4.462;2022-11-20T14:27:23;13.03;;;6.17;;
12832;SDS011;6483;51.310;4.462;2022-11-20T14:29:49;12.47;;;6.50;;
12832;SDS011;6483;51.310;4.462;2022-11-20T14:32:17;11.33;;;6.70;;
12832;SDS011;6483;51.310;4.462;2022-11-20T14:34:50;8.33;;;6.57;;
12832;SDS011;6483;51.310;4.462;2022-11-20T14:37:25;9.77;;;6.63;;
12832;SDS011;6483;51.310;4.462;2022-11-20T14:39:58;9.43;;;6.67;;
12832;SDS011;6483;51.310;4.462;2022-11-20T14:42:27;12.80;;;7.57;;
12832;SDS011;6483;51.310;4.462;2022-11-20T14:44:56;13.90;;;7.80;;
12832;SDS011;6483;51.310;4.462;2022-11-20T14:47:24;15.17;;;8.30;;
12832;SDS011;6483;51.310;4.462;2022-11-20T14:49:57;10.50;;;8.00;;
12832;SDS011;6483;51.310;4.462;2022-11-20T14:52:24;8.73;;;6.20;;
12832;SDS011;6483;51.310;4.462;2022-11-20T14:55:13;13.83;;;7.40;;
12832;SDS011;6483;51.310;4.462;2022-11-20T14:58:22;10.80;;;6.60;;
12832;SDS011;6483;51.310;4.462;2022-11-20T15:00:53;11.53;;;6.63;;
12832;SDS011;6483;51.310;4.462;2022-11-20T15:03:21;13.93;;;7.77;;
12832;SDS011;6483;51.310;4.462;2022-11-20T15:05:49;9.90;;;6.70;;
12832;SDS011;6483;51.310;4.462;2022-11-20T15:08:18;8.53;;;5.90;;
12832;SDS011;6483;51.310;4.462;2022-11-20T15:10:48;9.17;;;5.33;;
12832;SDS011;6483;51.310;4.462;2022-11-20T15:16:18;7.60;;;6.07;;
12832;SDS011;6483;51.310;4.462;2022-11-20T15:18:49;7.07;;;5.80;;
12832;SDS011;6483;51.310;4.462;2022-11-20T15:21:15;6.50;;;5.83;;
12832;SDS011;6483;51.310;4.462;2022-11-20T15:23:48;7.17;;;6.47;;
12832;SDS011;6483;51.310;4.462;2022-11-20T15:26:15;8.07;;;7.03;;
12832;SDS011;6483;51.310;4.462;2022-11-20T15:28:49;9.77;;;6.80;;
12832;SDS011;6483;51.310;4.462;2022-11-20T15:31:22;9.27;;;6.93;;
12832;SDS011;6483;51.310;4.462;2022-11-20T15:33:48;11.27;;;8.13;;
12832;SDS011;6483;51.310;4.462;2022-11-20T15:36:21;8.57;;;7.47;;
12832;SDS011;6483;51.310;4.462;2022-11-20T15:38:49;8.90;;;8.00;;
12832;SDS011;6483;51.310;4.462;2022-11-20T15:41:15;10.57;;;8.43;;
12832;SDS011;6483;51.310;4.462;2022-11-20T15:43:40;10.67;;;8.03;;
12832;SDS011;6483;51.310;4.462;2022-11-20T15:46:09;10.80;;;8.80;;
12832;SDS011;6483;51.310;4.462;2022-11-20T15:48:51;11.50;;;10.03;;
12832;SDS011;6483;51.310;4.462;2022-11-20T15:53:46;13.20;;;10.50;;
12832;SDS011;6483;51.310;4.462;2022-11-20T15:56:13;20.80;;;12.23;;
12832;SDS011;6483;51.310;4.462;2022-11-20T15:58:40;18.30;;;11.20;;
12832;SDS011;6483;51.310;4.462;2022-11-20T16:01:10;14.83;;;10.80;;
12832;SDS011;6483;51.310;4.462;2022-11-20T16:03:40;18.63;;;11.37;;
12832;SDS011;6483;51.310;4.462;2022-11-20T16:06:09;20.43;;;11.60;;
12832;SDS011;6483;51.310;4.462;2022-11-20T16:08:37;17.53;;;10.43;;
12832;SDS011;6483;51.310;4.462;2022-11-20T16:11:03;14.23;;;10.77;;
12832;SDS011;6483;51.310;4.462;2022-11-20T16:13:30;16.87;;;9.67;;
12832;SDS011;6483;51.310;4.462;2022-11-20T16:16:22;17.53;;;9.17;;
12832;SDS011;6483;51.310;4.462;2022-11-20T16:18:53;15.67;;;8.13;;
12832;SDS011;6483;51.310;4.462;2022-11-20T16:21:20;10.00;;;5.40;;
12832;SDS011;6483;51.310;4.462;2022-11-20T16:23:45;19.27;;;7.13;;
12832;SDS011;6483;51.310;4.462;2022-11-20T16:26:16;15.27;;;6.30;;
12832;SDS011;6483;51.310;4.462;2022-11-20T16:28:43;15.27;;;4.87;;
12832;SDS011;6483;51.310;4.462;2022-11-20T16:31:13;14.27;;;4.63;;
12832;SDS011;6483;51.310;4.462;2022-11-20T16:33:43;11.90;;;4.87;;
12832;SDS011;6483;51.310;4.462;2022-11-20T16:36:14;20.47;;;4.50;;
12832;SDS011;6483;51.310;4.462;2022-11-20T16:38:43;16.43;;;4.37;;
12832;SDS011;6483;51.310;4.462;2022-11-20T16:41:09;19.83;;;4.63;;
12832;SDS011;6483;51.310;4.462;2022-11-20T16:43:48;20.47;;;4.17;;
12832;SDS011;6483;51.310;4.462;2022-11-20T16:46:19;17.80;;;3.80;;
12832;SDS011;6483;51.310;4.462;2022-11-20T16:48:56;15.27;;;3.97;;
12832;SDS011;6483;51.310;4.462;2022-11-20T16:51:25;15.87;;;3.93;;
12832;SDS011;6483;51.310;4.462;2022-11-20T16:53:52;14.67;;;3.37;;
12832;SDS011;6483;51.310;4.462;2022-11-20T16:56:20;17.07;;;3.63;;
12832;SDS011;6483;51.310;4.462;2022-11-20T16:58:54;17.03;;;3.40;;
12832;SDS011;6483;51.310;4.462;2022-11-20T17:01:22;16.67;;;2.70;;
12832;SDS011;6483;51.310;4.462;2022-11-20T17:03:56;18.77;;;3.83;;
12832;SDS011;6483;51.310;4.462;2022-11-20T17:06:27;12.07;;;3.13;;
12832;SDS011;6483;51.310;4.462;2022-11-20T17:08:54;13.27;;;2.87;;
12832;SDS011;6483;51.310;4.462;2022-11-20T17:11:21;18.33;;;3.40;;
12832;SDS011;6483;51.310;4.462;2022-11-20T17:13:50;15.87;;;3.33;;